Latest Weather Observations for Mallacoota

IDV60801

Issued at 4:02 pm EDT Saturday 28 February 2015 (issued every 30 minutes, with the page automatically refreshed every 10 minutes)

About weather observations | Map of weather stations | Latest weather observations for VIC | Other Formats
Station Details ID: 084084 Name: MALLACOOTA Lat: -37.60 Lon: 149.73 Height: 22.0 m
Data from the previous 72 hours. | See also: Recent months at Mallacoota
Date/Time
EDT
Temp
°C
App
Temp
°C
Dew
Point
Rel
Hum
%
Delta-T
°C
Wind Press
QNH
hPa
Press
MSL
hPa
Rain
since 9 am
mm
Dir
 
Spd
km/h
Gust
km/h
Spd
kts
Gust
kts
28/04:00pm 23.4 24.9 18.9 76 2.9 NE 9 15 5 8 1005.0 - 0.0
28/03:30pm 23.4 24.9 18.9 76 2.9 ENE 9 13 5 7 1005.2 - 0.0
28/03:00pm 23.2 24.6 18.7 76 2.9 NE 9 11 5 6 1005.3 1005.2 0.0
28/02:30pm 23.4 24.3 18.3 73 3.2 ENE 11 17 6 9 1005.6 - 0.0
28/02:00pm 26.9 28.4 19.8 65 4.6 N 11 15 6 8 1005.8 - 0.0
28/01:30pm 26.9 27.0 20.0 66 4.5 N 19 24 10 13 1005.9 - 0.0
28/01:00pm 25.3 25.1 19.4 70 3.8 N 19 28 10 15 1006.3 - 0.0
28/12:30pm 24.7 24.7 18.9 70 3.7 NNW 17 28 9 15 1006.6 - 0.0
28/12:00pm 23.9 23.9 19.0 74 3.1 N 17 26 9 14 1006.7 1006.6 0.0
28/11:30am 23.1 23.3 18.6 76 2.8 N 15 24 8 13 1007.4 - 0.0
28/11:00am 23.0 23.2 18.5 76 2.8 N 15 22 8 12 1007.2 - 0.0
28/10:30am 22.9 23.2 18.7 77 2.7 N 15 22 8 12 1007.8 - 0.0
28/10:00am 22.3 22.0 18.3 78 2.5 N 17 24 9 13 1008.2 - 0.0
28/09:30am 21.6 22.9 18.4 82 2.0 NNE 9 15 5 8 1008.7 - 0.0
28/09:00am 20.2 20.7 17.4 84 1.7 NNW 11 15 6 8 1008.8 1008.7 0.0
28/08:30am 19.2 19.0 16.8 86 1.4 NNW 13 17 7 9 1008.8 - 0.0
28/08:00am 18.7 19.6 16.7 88 1.2 NNW 7 11 4 6 1009.0 - 0.0
28/07:30am 17.8 18.1 16.0 89 1.1 NW 9 13 5 7 1009.0 - 0.0
28/07:00am 17.0 18.7 15.2 89 1.0 CALM 0 0 0 0 1009.0 - 0.0
28/06:30am 17.3 18.4 15.5 89 1.1 NW 4 11 2 6 1008.7 - 0.0
28/06:00am 17.1 18.8 15.3 89 1.1 CALM 0 0 0 0 1008.8 1008.7 0.0
28/05:30am 16.7 18.3 14.9 89 1.0 CALM 0 0 0 0 1008.8 - 0.0
28/05:00am 16.9 18.5 14.9 88 1.2 CALM 0 0 0 0 1008.9 - 0.0
28/04:30am 17.0 18.6 15.0 88 1.2 CALM 0 0 0 0 1009.2 - 0.0
28/04:00am 16.7 18.2 14.7 88 1.2 CALM 0 0 0 0 1009.4 - 0.0
28/03:30am 16.7 18.1 14.5 87 1.3 CALM 0 0 0 0 1009.7 - 0.0
28/03:00am 16.9 18.3 14.4 85 1.4 CALM 0 2 0 1 1010.0 1009.9 0.0
28/02:30am 17.3 18.1 14.8 85 1.4 W 4 7 2 4 1010.3 - 0.0
28/02:00am 17.0 17.2 14.6 86 1.4 W 7 11 4 6 1010.5 - 0.0
28/01:30am 17.0 18.5 14.6 86 1.4 CALM 0 0 0 0 1010.5 - 0.0
28/01:00am 17.1 17.8 14.6 85 1.4 NW 4 7 2 4 1010.7 - 0.0
28/12:30am 17.3 18.6 14.2 82 1.8 CALM 0 0 0 0 1010.7 - 0.0
28/12:00am 17.5 17.8 14.6 83 1.7 NW 6 9 3 5 1010.7 1010.6 0.0
 
Date/Time
EDT
Temp
°C
App
Temp
°C
Dew
Point
Rel
Hum
%
Delta-T
°C
Wind Press
QNH
hPa
Press
MSL
hPa
Rain
since 9 am
mm
Dir
 
Spd
km/h
Gust
km/h
Spd
kts
Gust
kts
27/11:30pm 17.5 17.7 14.8 84 1.6 W 7 9 4 5 1011.1 - 0.0
27/11:00pm 17.2 17.4 14.7 85 1.4 W 7 7 4 4 1011.0 - 0.0
27/10:30pm 17.2 18.6 14.5 84 1.6 CALM 0 0 0 0 1010.8 - 0.0
27/10:00pm 17.3 18.8 14.6 84 1.6 CALM 0 0 0 0 1010.8 - 0.0
27/09:30pm 17.3 17.6 14.4 83 1.7 NNW 6 6 3 3 1010.9 - 0.0
27/09:00pm 17.4 18.3 14.1 81 1.9 WNW 2 6 1 3 1010.8 1010.7 0.0
27/08:30pm 17.9 18.9 14.2 79 2.1 W 2 7 1 4 1010.9 - 0.0
27/08:00pm 18.2 19.4 13.9 76 2.5 CALM 0 0 0 0 1010.7 - 0.0
27/07:30pm 19.1 19.6 14.1 73 2.9 SW 4 6 2 3 1010.5 - 0.0
27/07:00pm 19.4 20.5 14.6 74 2.8 SSW 2 6 1 3 1010.0 - 0.0
27/06:30pm 19.5 19.4 15.0 75 2.6 SSW 9 13 5 7 1010.1 - 0.0
27/06:00pm 19.4 18.6 15.1 76 2.5 SSW 13 17 7 9 1010.0 1009.9 0.0
27/05:30pm 19.4 17.9 15.3 77 2.4 SSW 17 22 9 12 1009.8 - 0.0
27/05:00pm 19.4 19.3 15.9 80 2.1 S 11 17 6 9 1009.3 - 0.0
27/04:30pm 19.7 18.9 16.2 80 2.1 SSW 15 22 8 12 1009.3 - 0.0
27/04:00pm 19.6 18.9 16.4 82 1.9 S 15 22 8 12 1009.3 - 0.0
27/03:30pm 19.4 18.3 16.4 83 1.8 S 17 22 9 12 1009.3 - 0.0
27/03:00pm 19.3 18.9 16.3 83 1.8 S 13 17 7 9 1009.5 1009.4 0.0
27/02:30pm 19.8 19.3 16.8 83 1.8 S 15 19 8 10 1009.8 - 0.0
27/02:00pm 19.2 18.8 16.2 83 1.8 S 13 17 7 9 1009.9 - 0.0
27/01:30pm 19.2 19.1 16.1 82 1.8 S 11 13 6 7 1010.1 - 0.0
27/01:00pm 19.8 20.2 16.4 81 2.0 SSE 9 11 5 6 1010.4 - 0.0
27/12:30pm 19.3 18.9 16.3 83 1.8 S 13 17 7 9 1010.7 - 0.0
27/12:00pm 18.9 18.4 15.9 83 1.8 S 13 17 7 9 1011.2 1011.1 0.0
27/11:30am 19.1 19.2 15.4 79 2.2 S 9 13 5 7 1011.0 - 0.0
27/11:00am 20.2 20.4 15.8 76 2.6 SSE 9 13 5 7 1011.1 - 0.0
27/10:30am 19.5 19.2 14.5 73 2.9 SE 9 11 5 6 1011.0 - 0.0
27/10:00am 20.1 20.4 15.1 73 2.9 SE 7 11 4 6 1010.7 - 0.0
27/09:30am 18.9 20.1 15.0 78 2.3 ENE 2 7 1 4 1010.8 - 0.0
27/09:00am 18.6 18.9 14.9 79 2.2 W 7 11 4 6 1010.4 1010.3 0.0
27/08:30am 17.7 17.7 15.3 86 1.4 WNW 9 13 5 7 1010.3 - 0.0
27/08:00am 15.8 15.4 14.2 90 0.9 WNW 9 13 5 7 1010.4 - 0.0
27/07:30am 14.9 14.3 13.4 91 0.8 WNW 9 11 5 6 1010.2 - 0.0
27/07:00am 14.7 13.6 13.2 91 0.8 WNW 11 13 6 7 1010.2 - 0.0
27/06:30am 14.8 14.1 13.2 90 0.9 NW 9 11 5 6 1009.8 - 0.0
27/06:00am 15.2 14.6 13.6 90 0.9 WNW 9 13 5 7 1010.0 1009.9 0.0
27/05:30am 15.5 15.3 13.7 89 1.0 WNW 7 13 4 7 1010.0 - 0.0
27/05:00am 15.5 15.0 13.7 89 1.0 WNW 9 13 5 7 1010.1 - 0.0
27/04:30am 15.8 15.4 14.0 89 1.0 WNW 9 13 5 7 1009.8 - 0.0
27/04:00am 15.6 15.1 13.8 89 1.0 WNW 9 11 5 6 1010.1 - 0.0
27/03:30am 16.2 15.8 14.2 88 1.1 W 9 13 5 7 1010.2 - 0.0
27/03:00am 15.9 15.8 13.9 88 1.1 WNW 7 11 4 6 1010.4 1010.3 0.0
27/02:30am 16.0 15.5 13.8 87 1.2 WNW 9 15 5 8 1010.4 - 0.0
27/02:00am 16.1 15.6 13.9 87 1.2 W 9 11 5 6 1010.4 - 0.0
27/01:30am 15.9 15.8 13.9 88 1.1 WSW 7 11 4 6 1010.7 - 0.0
27/01:00am 16.0 16.1 13.8 87 1.2 W 6 9 3 5 1010.9 - 0.0
27/12:30am 16.3 16.2 14.0 86 1.3 W 7 9 4 5 1011.0 - 0.0
27/12:00am 16.3 16.4 14.0 86 1.3 W 6 9 3 5 1011.1 1011.0 0.0
 
Date/Time
EDT
Temp
°C
App
Temp
°C
Dew
Point
Rel
Hum
%
Delta-T
°C
Wind Press
QNH
hPa
Press
MSL
hPa
Rain
since 9 am
mm
Dir
 
Spd
km/h
Gust
km/h
Spd
kts
Gust
kts
26/11:30pm 16.3 16.4 13.8 85 1.4 WNW 6 7 3 4 1011.1 - 0.0
26/11:00pm 17.0 17.1 14.5 85 1.4 W 7 9 4 5 1011.0 - 0.0
26/10:30pm 16.4 16.5 13.9 85 1.4 W 6 7 3 4 1011.0 - 0.0
26/10:00pm 16.3 17.1 13.6 84 1.5 WNW 2 7 1 4 1010.9 - 0.0
26/09:30pm 17.1 17.8 13.4 79 2.1 WNW 2 6 1 3 1010.8 - 0.0
26/09:00pm 18.1 17.8 13.4 74 2.7 W 7 9 4 5 1010.2 1010.1 0.0
26/08:30pm 18.8 18.3 13.9 73 2.8 W 9 13 5 7 1009.8 - 0.0
26/08:00pm 19.4 18.9 13.8 70 3.2 W 9 15 5 8 1009.3 - 0.0
26/07:30pm 20.2 19.3 13.6 66 3.8 WSW 11 17 6 9 1009.0 - 0.0
26/07:00pm 21.2 20.0 13.9 63 4.2 WSW 13 22 7 12 1008.7 - 0.0
26/06:30pm 22.0 20.9 14.4 62 4.5 WSW 13 24 7 13 1008.4 - 0.0
26/06:00pm 22.2 20.5 14.6 62 4.5 WSW 17 26 9 14 1008.2 1008.1 0.0
26/05:30pm 22.4 21.6 16.0 67 3.9 SSW 15 20 8 11 1008.1 - 0.0
26/05:00pm 22.5 22.0 15.8 66 4.0 SSW 13 22 7 12 1008.0 - 0.0
26/04:30pm 23.6 22.6 15.6 61 4.8 SW 15 24 8 13 1007.8 - 0.0
26/04:00pm 22.3 20.8 15.4 65 4.1 SW 17 26 9 14 1007.8 - 0.0
26/03:30pm 22.6 21.0 15.0 62 4.5 SW 17 28 9 15 1007.8 - 0.0
26/03:00pm 23.9 22.9 15.7 60 5.0 SW 15 22 8 12 1007.7 1007.6 0.0
26/02:30pm 23.1 21.3 15.4 62 4.6 SW 19 32 10 17 1007.9 - 0.0
26/02:00pm 23.7 22.2 16.2 63 4.6 SW 19 32 10 17 1007.8 - 0.0
26/01:30pm 20.4 20.8 16.2 77 2.5 E 9 13 5 7 1007.8 - 0.0
26/01:00pm 19.4 19.5 15.5 78 2.3 NE 9 11 5 6 1008.0 - 0.0
26/12:30pm 19.6 20.1 15.5 77 2.4 SE 7 9 4 5 1008.3 - 0.0
26/12:00pm 18.8 18.1 14.3 75 2.6 S 11 15 6 8 1008.5 1008.4 0.0
26/11:30am 19.1 18.0 14.4 74 2.7 S 13 17 7 9 1008.6 - 0.0
26/11:00am 22.0 22.7 16.1 69 3.6 WNW 7 11 4 6 1008.5 - 0.0
26/10:30am 20.6 21.2 15.2 71 3.2 WNW 6 9 3 5 1008.5 - 0.0
26/10:00am 19.9 19.6 14.5 71 3.1 NW 9 13 5 7 1008.5 - 0.0
26/09:30am 18.7 17.4 13.8 73 2.8 NNW 13 19 7 10 1008.2 - 0.0
26/09:00am 18.0 16.2 13.3 74 2.7 NNW 15 22 8 12 1007.9 1007.8 0.0
26/08:30am 17.4 15.1 13.1 76 2.4 NNW 17 22 9 12 1007.8 - 0.0
26/08:00am 16.7 14.8 13.0 79 2.1 NNW 15 22 8 12 1007.7 - 0.0
26/07:30am 16.0 14.4 12.9 82 1.7 NNW 13 19 7 10 1007.7 - 0.0
26/07:00am 15.4 14.2 12.7 84 1.5 NNW 11 17 6 9 1007.8 - 0.0
26/06:30am 15.4 14.9 12.7 84 1.5 N 7 11 4 6 1007.9 - 0.0
26/06:00am 15.6 14.7 12.7 83 1.6 NNW 9 13 5 7 1008.0 1007.9 0.0
26/05:30am 16.2 15.0 12.9 81 1.8 N 11 17 6 9 1008.1 - 0.0
26/05:00am 16.1 15.0 13.2 83 1.6 N 11 15 6 8 1008.4 - 0.0
26/04:30am 15.6 14.6 13.3 86 1.3 N 11 13 6 7 1008.7 - 0.0
26/04:00am 14.9 14.1 12.9 88 1.1 N 9 13 5 7 1009.2 - 0.0
26/03:30am 14.8 14.3 12.7 87 1.2 NW 7 9 4 5 1009.7 - 0.0
26/03:00am 15.6 15.2 13.1 85 1.4 N 7 9 4 5 1010.0 1009.9 0.0
26/02:30am 16.3 15.4 13.6 84 1.5 NNE 11 13 6 7 1010.3 - 0.0
26/02:00am 16.0 14.8 12.9 82 1.7 N 11 13 6 7 1010.9 - 0.0
26/01:30am 15.4 14.4 12.3 82 1.7 N 9 11 5 6 1011.4 - 0.0
26/01:00am 15.9 15.4 12.6 81 1.8 NNW 7 11 4 6 1011.9 - 0.0
26/12:30am 17.1 16.0 13.0 77 2.3 NNE 11 15 6 8 1012.3 - 0.0
26/12:00am 17.8 16.7 13.1 74 2.6 NNE 11 17 6 9 1012.5 1012.4 0.0
 
Date/Time
EDT
Temp
°C
App
Temp
°C
Dew
Point
Rel
Hum
%
Delta-T
°C
Wind Press
QNH
hPa
Press
MSL
hPa
Rain
since 9 am
mm
Dir
 
Spd
km/h
Gust
km/h
Spd
kts
Gust
kts
25/11:30pm 18.1 17.4 13.2 73 2.8 NNE 9 13 5 7 1012.8 - 0.0
25/11:00pm 18.5 17.1 13.4 72 2.9 NNE 13 19 7 10 1013.3 - 0.0
25/10:30pm 18.4 16.8 12.8 70 3.1 NNE 13 17 7 9 1013.8 - 0.0
25/10:00pm 18.4 16.8 12.8 70 3.1 NNE 13 19 7 10 1014.3 - 0.0
25/09:30pm 18.2 16.6 12.9 71 3.0 NNE 13 17 7 9 1014.3 - 0.0
25/09:00pm 17.9 16.8 13.2 74 2.6 NNE 11 17 6 9 1014.7 1014.6 0.0
25/08:30pm 17.5 16.9 13.6 78 2.2 NNE 9 15 5 8 1014.4 - 0.0
25/08:00pm 17.5 17.2 13.2 76 2.4 NE 7 13 4 7 1014.5 - 0.0
25/07:30pm 17.9 16.4 13.0 73 2.7 NE 13 20 7 11 1014.8 - 0.0
25/07:00pm 18.3 16.0 13.0 71 3.0 ENE 17 28 9 15 1015.1 - 0.0
25/06:30pm 18.3 15.5 12.5 69 3.2 ENE 19 24 10 13 1015.3 - 0.0
25/06:00pm 18.7 16.4 12.9 69 3.3 ENE 17 22 9 12 1015.4 1015.3 0.0
25/05:30pm 18.9 16.2 12.9 68 3.4 E 19 26 10 14 1015.5 - 0.0
25/05:00pm 19.0 16.8 13.2 69 3.3 ENE 17 22 9 12 1015.9 - 0.0
25/04:30pm 20.0 18.3 13.5 66 3.7 E 15 20 8 11 1016.3 - 0.0

Other Formats:

Comma delimited format used in spreadsheet applications
http://www.bom.gov.au/fwo/IDV60801/IDV60801.94935.axf

JavaScript Object Notation format (JSON) in row-major order
http://www.bom.gov.au/fwo/IDV60801/IDV60801.94935.json